Time;durP1;ratioP1;P1;durP2;ratioP2;P2;SDS_P1;SDS_P2;PMS_P1;PMS_P2;Temp;Humidity;BMP_temperature;BMP_pressure;BME280_temperature;BME280_humidity;BME280_pressure;Samples;Min_cycle;Max_cycle;Signal;HPM_P1;HPM_P2
2021/01/02 00:00:15;;;;;;;49.65;27.48;;;;;;;1.92;90.04;100020.78;5072966;28;20028;-77
2021/01/02 00:02:43;;;;;;;46.42;25.80;;;;;;;1.89;89.41;100015.66;5071443;28;20031;-77
2021/01/02 00:05:10;;;;;;;47.08;25.92;;;;;;;1.89;89.86;100023.31;5072555;28;20026;-77
2021/01/02 00:08:09;;;;;;;47.72;26.40;;;;;;;1.87;89.87;100022.44;5071420;28;20031;-77
2021/01/02 00:10:57;;;;;;;45.90;26.17;;;;;;;1.84;89.58;100017.31;5072765;28;20503;-77
2021/01/02 00:13:57;;;;;;;48.25;25.40;;;;;;;1.82;89.57;100024.97;5071616;28;20111;-77
2021/01/02 00:16:45;;;;;;;45.60;25.90;;;;;;;1.82;89.53;100019.88;5088214;28;20025;-77
2021/01/02 00:19:26;;;;;;;43.83;24.98;;;;;;;1.81;89.15;100030.06;5071400;28;20533;-77
2021/01/02 00:22:08;;;;;;;41.70;24.10;;;;;;;1.72;89.57;100019.75;5072668;28;20107;-77
2021/01/02 00:25:08;;;;;;;44.17;25.25;;;;;;;1.78;89.14;100027.47;5072711;28;20025;-77
2021/01/02 00:27:44;;;;;;;45.03;24.17;;;;;;;1.75;88.73;100019.78;5068198;28;20049;-77
2021/01/02 00:30:34;;;;;;;41.28;24.08;;;;;;;1.69;89.63;100027.41;5071267;28;20488;-77
2021/01/02 00:33:03;;;;;;;45.35;26.27;;;;;;;1.68;89.29;100020.59;5041516;28;20040;-77
2021/01/02 00:35:29;;;;;;;45.15;24.92;;;;;;;1.73;89.34;100030.00;5071281;28;20042;-77
2021/01/02 00:38:03;;;;;;;42.42;24.85;;;;;;;1.76;89.22;100034.31;5087923;28;20020;-77
2021/01/02 00:40:29;;;;;;;38.88;22.83;;;;;;;1.82;88.59;100029.25;5054745;28;20025;-77
2021/01/02 00:42:54;;;;;;;41.00;23.17;;;;;;;1.80;88.74;100021.53;5071227;28;20033;-77
2021/01/02 00:45:22;;;;;;;41.75;22.90;;;;;;;1.82;88.67;100024.13;5054420;28;20048;-77
2021/01/02 00:47:51;;;;;;;42.63;22.52;;;;;;;1.81;88.16;100027.50;5071132;28;20030;-77
2021/01/02 00:50:19;;;;;;;40.42;22.83;;;;;;;1.73;88.96;100024.91;5074443;28;20539;-77
2021/01/02 00:52:44;;;;;;;41.53;23.75;;;;;;;1.69;89.32;100030.81;5057848;28;20401;-77
2021/01/02 00:55:13;;;;;;;42.27;24.97;;;;;;;1.65;89.46;100025.66;5075937;28;20021;-77
2021/01/02 00:58:04;;;;;;;45.05;24.70;;;;;;;1.65;89.07;100028.22;5075702;28;20267;-77
2021/01/02 01:00:36;;;;;;;45.90;24.08;;;;;;;1.52;89.71;100029.81;5074516;28;20025;-77
2021/01/02 01:03:17;;;;;;;42.10;22.80;;;;;;;1.36;90.19;100033.91;5074275;28;20021;-77
2021/01/02 01:05:46;;;;;;;43.42;25.02;;;;;;;1.37;90.45;100043.28;5074542;28;20453;-78
2021/01/02 01:08:14;;;;;;;40.13;22.85;;;;;;;1.29;90.51;100044.88;5074360;28;20028;-78
2021/01/02 01:10:40;;;;;;;43.25;23.15;;;;;;;1.26;90.75;100043.16;5074269;28;20098;-77
2021/01/02 01:13:08;;;;;;;42.17;24.33;;;;;;;1.15;90.99;100049.84;5091021;28;20484;-77
2021/01/02 01:15:34;;;;;;;42.13;23.90;;;;;;;1.23;90.76;100047.38;5074188;28;20029;-77
2021/01/02 01:18:04;;;;;;;46.30;24.55;;;;;;;1.31;90.74;100050.88;5074017;28;20571;-77
2021/01/02 01:20:30;;;;;;;43.47;25.20;;;;;;;1.23;90.83;100047.38;5074092;28;20067;-77
2021/01/02 01:23:26;;;;;;;45.60;24.80;;;;;;;1.27;90.54;100049.13;5073948;28;20052;-77
2021/01/02 01:26:29;;;;;;;46.58;24.15;;;;;;;1.29;90.43;100055.09;5075131;28;20035;-77
2021/01/02 01:28:56;;;;;;;39.20;21.25;;;;;;;1.29;90.91;100065.31;5075216;28;20032;-77
2021/01/02 01:31:22;;;;;;;44.20;24.75;;;;;;;1.34;90.64;100066.22;5073973;28;20035;-77
2021/01/02 01:33:49;;;;;;;43.40;22.88;;;;;;;1.43;90.44;100062.94;5073633;28;20029;-77
2021/01/02 01:36:22;;;;;;;41.50;21.77;;;;;;;1.45;90.32;100061.22;5073911;28;20362;-77
2021/01/02 01:38:55;;;;;;;46.30;25.27;;;;;;;1.41;90.55;100062.91;5073780;28;20017;-77
2021/01/02 01:41:33;;;;;;;39.75;22.65;;;;;;;1.40;89.93;100068.84;5056905;28;20077;-77
2021/01/02 01:44:04;;;;;;;40.80;23.70;;;;;;;1.38;90.51;100063.72;5073688;28;20530;-77
2021/01/02 01:46:34;;;;;;;40.15;21.75;;;;;;;1.40;90.41;100070.56;5090359;28;20023;-77
2021/01/02 01:49:10;;;;;;;43.10;24.05;;;;;;;1.39;90.46;100072.25;5056745;28;20028;-77
2021/01/02 01:51:50;;;;;;;41.30;22.27;;;;;;;1.39;90.45;100074.81;5073435;28;20028;-77
2021/01/02 01:54:53;;;;;;;39.92;22.63;;;;;;;1.43;91.01;100076.56;5074592;28;20477;-77
2021/01/02 01:57:25;;;;;;;40.45;22.70;;;;;;;1.49;90.18;100073.22;5074525;28;20055;-77
2021/01/02 01:59:57;;;;;;;40.50;22.23;;;;;;;1.48;90.27;100076.59;5073185;28;20114;-78
2021/01/02 02:02:47;;;;;;;38.67;22.77;;;;;;;1.53;90.63;100078.34;5090200;28;20368;-77
2021/01/02 02:05:17;;;;;;;41.47;23.38;;;;;;;1.48;90.51;100080.03;5074383;28;20453;-77
2021/01/02 02:08:05;;;;;;;43.88;23.35;;;;;;;1.50;90.13;100078.31;5073123;28;20027;-77
2021/01/02 02:10:46;;;;;;;38.22;22.23;;;;;;;1.50;90.40;100078.31;5073107;28;20128;-77
2021/01/02 02:13:19;;;;;;;39.35;22.85;;;;;;;1.60;90.09;100089.50;5056239;28;20383;-77
2021/01/02 02:15:49;;;;;;;37.63;22.65;;;;;;;1.68;90.01;100084.47;5073022;28;20012;-77
2021/01/02 02:18:19;;;;;;;39.35;22.27;;;;;;;1.67;90.10;100075.13;5073024;28;20021;-77
2021/01/02 02:20:47;;;;;;;41.80;23.13;;;;;;;1.67;89.73;100087.88;5072988;28;20115;-77
2021/01/02 02:23:14;;;;;;;36.63;20.92;;;;;;;1.71;89.59;100079.41;5072760;28;20032;-77
2021/01/02 02:26:03;;;;;;;41.10;22.85;;;;;;;1.67;90.20;100077.66;5072833;28;20021;-77
2021/01/02 02:28:35;;;;;;;39.65;22.88;;;;;;;1.68;89.72;100079.38;5053978;28;20032;-77
2021/01/02 02:31:10;;;;;;;39.63;22.73;;;;;;;1.69;89.50;100078.53;5089540;28;20028;-77
2021/01/02 02:33:36;;;;;;;34.03;21.90;;;;;;;1.66;89.89;100073.38;5073397;28;20030;-77
2021/01/02 02:36:04;;;;;;;37.97;21.25;;;;;;;1.65;89.15;100079.34;5072672;28;20100;-77
2021/01/02 02:38:36;;;;;;;38.58;21.92;;;;;;;1.51;89.64;100077.50;5072612;28;20535;-77
2021/01/02 02:41:09;;;;;;;38.33;21.10;;;;;;;1.41;90.31;100078.22;5055758;28;20082;-77
2021/01/02 02:43:36;;;;;;;38.85;21.77;;;;;;;1.30;90.40;100083.22;5072141;28;20562;-77
2021/01/02 02:46:02;;;;;;;37.85;20.95;;;;;;;1.25;90.66;100079.75;5072294;28;20036;-77
2021/01/02 02:48:29;;;;;;;34.80;21.70;;;;;;;1.16;91.21;100089.88;5072373;28;20431;-77
2021/01/02 02:50:54;;;;;;;39.00;21.50;;;;;;;1.35;91.01;100085.81;5072297;28;20036;-77
2021/01/02 02:53:20;;;;;;;38.75;22.00;;;;;;;1.38;90.78;100084.16;5072383;28;20517;-77
2021/01/02 02:55:45;;;;;;;36.33;21.80;;;;;;;1.33;90.87;100082.41;5072072;28;20077;-77
2021/01/02 02:58:11;;;;;;;38.30;22.52;;;;;;;1.34;90.98;100084.97;5088942;28;20127;-78
2021/01/02 03:00:37;;;;;;;39.08;22.80;;;;;;;1.36;90.97;100090.13;5072112;28;20047;-78
2021/01/02 03:03:03;;;;;;;36.67;20.70;;;;;;;1.43;90.31;100086.78;5071992;28;20054;-78
2021/01/02 03:05:29;;;;;;;40.00;23.05;;;;;;;1.45;90.35;100086.78;5055835;28;20017;-78
2021/01/02 03:07:55;;;;;;;39.58;21.63;;;;;;;1.43;90.67;100084.22;5072161;28;20155;-78
2021/01/02 03:10:22;;;;;;;42.30;23.25;;;;;;;1.46;89.96;100093.63;5071963;28;20074;-78
2021/01/02 03:12:52;;;;;;;43.45;23.52;;;;;;;1.49;90.86;100091.09;5054799;28;20027;-78
2021/01/02 03:15:19;;;;;;;38.22;22.63;;;;;;;1.49;90.71;100094.50;5072326;28;20518;-77
2021/01/02 03:17:48;;;;;;;39.70;22.88;;;;;;;1.53;90.59;100088.59;5071831;28;20089;-77
2021/01/02 03:20:15;;;;;;;39.67;23.00;;;;;;;1.56;90.19;100091.16;5071957;28;20420;-77
2021/01/02 03:22:41;;;;;;;38.65;22.23;;;;;;;1.60;90.28;100097.16;5055240;28;20024;-77
2021/01/02 03:25:08;;;;;;;40.78;22.35;;;;;;;1.60;90.08;100097.16;5071867;28;20024;-77
2021/01/02 03:27:33;;;;;;;37.92;22.63;;;;;;;1.64;90.46;100098.09;5071920;28;20054;-77
2021/01/02 03:29:59;;;;;;;37.97;23.67;;;;;;;1.66;90.28;100106.59;5071651;28;20036;-77
2021/01/02 03:32:24;;;;;;;38.50;22.45;;;;;;;1.65;90.59;100102.34;5071573;28;20543;-77
2021/01/02 03:34:49;;;;;;;34.60;21.20;;;;;;;1.67;90.56;100105.78;5088448;28;20025;-77
2021/01/02 03:37:14;;;;;;;37.03;22.67;;;;;;;1.67;90.04;100100.69;5071610;28;20066;-77
2021/01/02 03:39:40;;;;;;;37.88;21.90;;;;;;;1.68;90.35;100104.94;5071630;28;20414;-77
2021/01/02 03:42:07;;;;;;;36.47;20.77;;;;;;;1.68;90.50;100110.91;5088348;28;20020;-77
2021/01/02 03:44:32;;;;;;;37.28;22.48;;;;;;;1.66;90.30;100109.16;5071494;28;20033;-77
2021/01/02 03:46:58;;;;;;;41.67;22.10;;;;;;;1.68;90.62;100108.34;5072756;28;20111;-77
2021/01/02 03:49:23;;;;;;;37.30;21.17;;;;;;;1.71;90.40;100107.53;5055104;28;20032;-77
2021/01/02 03:51:48;;;;;;;31.65;20.33;;;;;;;1.73;90.52;100105.84;5088795;28;20055;-77
2021/01/02 03:54:13;;;;;;;34.60;20.13;;;;;;;1.76;90.37;100111.00;5088260;28;20519;-77
2021/01/02 03:56:39;;;;;;;32.92;20.35;;;;;;;1.75;90.75;100111.81;5054800;28;20021;-77
2021/01/02 03:59:04;;;;;;;34.60;21.08;;;;;;;1.79;89.85;100111.03;5088250;28;20086;-77
2021/01/02 04:01:29;;;;;;;34.50;19.83;;;;;;;1.80;90.11;100112.72;5071478;28;20405;-77
2021/01/02 04:03:54;;;;;;;33.78;19.40;;;;;;;1.80;90.12;100107.63;5088375;28;20498;-77
2021/01/02 04:06:24;;;;;;;35.78;18.98;;;;;;;1.78;90.07;100115.25;5071285;28;20079;-77
2021/01/02 04:08:49;;;;;;;34.42;19.13;;;;;;;1.81;90.34;100110.16;5071542;28;20107;-77
2021/01/02 04:11:15;;;;;;;35.50;20.40;;;;;;;1.79;90.62;100111.03;5088611;28;20060;-77
2021/01/02 04:13:40;;;;;;;34.92;19.15;;;;;;;1.80;90.44;100108.47;5088226;28;20442;-77
2021/01/02 04:16:05;;;;;;;31.92;19.35;;;;;;;1.83;89.96;100107.66;5088114;28;20013;-77
2021/01/02 04:18:30;;;;;;;34.08;19.77;;;;;;;1.79;90.35;100109.31;5071255;28;20036;-77
2021/01/02 04:20:56;;;;;;;37.88;21.25;;;;;;;1.82;90.23;100111.06;5088487;28;20024;-77
2021/01/02 04:23:21;;;;;;;30.25;18.95;;;;;;;1.82;90.04;100122.13;5088522;28;20135;-77
2021/01/02 04:25:46;;;;;;;33.38;18.02;;;;;;;1.87;89.88;100109.38;5075330;28;20488;-77
2021/01/02 04:28:12;;;;;;;30.20;18.90;;;;;;;1.90;89.91;100113.66;5074876;28;20025;-77
2021/01/02 04:30:37;;;;;;;33.45;20.17;;;;;;;1.88;90.05;100116.22;5075309;28;20107;-77
2021/01/02 04:33:03;;;;;;;33.53;18.58;;;;;;;1.85;90.51;100116.19;5074820;28;20078;-77
2021/01/02 04:35:28;;;;;;;32.40;19.63;;;;;;;1.82;90.26;100126.41;5058219;28;20392;-77
2021/01/02 04:37:53;;;;;;;32.60;19.52;;;;;;;1.84;90.24;100111.91;5075148;28;20387;-77
2021/01/02 04:40:19;;;;;;;32.97;18.70;;;;;;;1.86;90.01;100111.94;5091826;28;20027;-77
2021/01/02 04:42:44;;;;;;;32.63;19.52;;;;;;;1.88;90.15;100112.78;5074652;28;20105;-77
2021/01/02 04:45:10;;;;;;;29.27;17.88;;;;;;;1.84;89.98;100115.31;5092129;28;20031;-77
2021/01/02 04:47:37;;;;;;;30.95;18.73;;;;;;;1.88;90.00;100116.22;5058236;28;20458;-77
2021/01/02 04:50:05;;;;;;;31.98;19.60;;;;;;;1.88;89.97;100121.34;5074605;28;20388;-77
2021/01/02 04:52:31;;;;;;;37.08;20.35;;;;;;;1.88;89.89;100117.91;5074513;28;20040;-77
2021/01/02 04:54:57;;;;;;;30.42;19.23;;;;;;;1.88;89.71;100112.78;5074480;28;20488;-77
2021/01/02 04:57:22;;;;;;;32.42;19.95;;;;;;;1.85;90.02;100116.19;5074476;28;20028;-77
2021/01/02 04:59:51;;;;;;;33.10;20.73;;;;;;;1.87;89.87;100122.16;5074357;28;20031;-77
2021/01/02 05:02:20;;;;;;;34.85;20.65;;;;;;;1.86;90.09;100120.47;5074277;28;20040;-77
2021/01/02 05:04:47;;;;;;;30.98;19.38;;;;;;;1.85;90.07;100121.31;5074407;28;20025;-78
2021/01/02 05:07:25;;;;;;;30.10;20.13;;;;;;;1.82;89.99;100122.13;5057609;28;20059;-78
2021/01/02 05:09:50;;;;;;;37.65;20.08;;;;;;;1.83;89.82;100122.97;5074844;28;20111;-77
2021/01/02 05:12:26;;;;;;;35.28;21.17;;;;;;;1.85;89.66;100128.97;5074115;28;20054;-77
2021/01/02 05:15:07;;;;;;;33.17;20.05;;;;;;;1.86;90.19;100132.41;5074178;28;20435;-77
2021/01/02 05:17:33;;;;;;;33.55;21.70;;;;;;;1.86;90.07;100132.41;5075440;28;20099;-77
2021/01/02 05:20:03;;;;;;;37.75;21.67;;;;;;;1.84;89.81;100133.22;5074192;28;20106;-77
2021/01/02 05:22:28;;;;;;;40.45;21.83;;;;;;;1.85;90.00;100136.66;5074104;28;20025;-77
2021/01/02 05:25:05;;;;;;;37.20;21.80;;;;;;;1.84;90.15;100138.31;5073969;28;20063;-77
2021/01/02 05:27:34;;;;;;;31.00;18.88;;;;;;;1.83;89.92;100140.88;5074005;28;20499;-77
2021/01/02 05:30:26;;;;;;;34.05;20.27;;;;;;;1.82;90.80;100142.59;5057203;28;20488;-77
2021/01/02 05:33:02;;;;;;;32.83;21.15;;;;;;;1.82;90.54;100136.63;5073920;28;20111;-77
2021/01/02 05:35:29;;;;;;;35.88;20.52;;;;;;;1.81;90.73;100142.56;5090415;28;20046;-77
2021/01/02 05:38:14;;;;;;;37.55;21.48;;;;;;;1.82;89.98;100146.84;5073946;28;20111;-78
2021/01/02 05:40:42;;;;;;;38.80;22.90;;;;;;;1.82;90.27;100155.38;5058159;28;20404;-78
2021/01/02 05:43:08;;;;;;;38.20;21.92;;;;;;;1.79;90.35;100147.66;5056810;28;20056;-78
2021/01/02 05:45:33;;;;;;;37.30;22.95;;;;;;;1.80;90.31;100154.50;5073768;28;20421;-78
2021/01/02 05:48:13;;;;;;;40.25;22.50;;;;;;;1.80;90.11;100151.09;5073632;28;20115;-78
2021/01/02 05:50:42;;;;;;;40.65;21.95;;;;;;;1.80;90.65;100153.63;5074921;28;20518;-78
2021/01/02 05:53:21;;;;;;;34.92;22.15;;;;;;;1.83;90.30;100156.22;5073483;28;20400;-78
2021/01/02 05:55:46;;;;;;;37.85;22.77;;;;;;;1.86;90.20;100157.97;5090440;28;20063;-78
2021/01/02 05:58:16;;;;;;;38.33;22.50;;;;;;;1.80;90.64;100153.63;5073491;28;20115;-78
2021/01/02 06:00:45;;;;;;;37.85;22.48;;;;;;;1.80;90.19;100163.88;5073420;28;20016;-78
2021/01/02 06:03:24;;;;;;;35.47;20.85;;;;;;;1.81;90.82;100155.34;5082405;23;20044;-73
2021/01/02 06:05:59;;;;;;;40.47;22.55;;;;;;;1.78;90.44;100157.88;5093467;28;20025;-74
2021/01/02 06:08:33;;;;;;;37.47;21.95;;;;;;;1.79;90.62;100157.03;5093717;28;20515;-74
2021/01/02 06:11:02;;;;;;;35.30;21.37;;;;;;;1.78;90.38;100165.53;5094671;28;20048;-73
2021/01/02 06:13:28;;;;;;;39.75;22.70;;;;;;;1.76;90.63;100169.78;5072946;28;20027;-73
2021/01/02 06:15:56;;;;;;;36.70;21.10;;;;;;;1.78;90.44;100170.66;5073041;28;20043;-74
2021/01/02 06:18:21;;;;;;;38.20;21.75;;;;;;;1.78;90.35;100166.38;5073301;28;20035;-74
2021/01/02 06:20:47;;;;;;;38.08;22.48;;;;;;;1.78;90.84;100165.53;5072940;28;20032;-74
2021/01/02 06:23:14;;;;;;;36.05;23.08;;;;;;;1.76;90.21;100174.91;5089572;28;20020;-74
2021/01/02 06:25:39;;;;;;;35.90;20.05;;;;;;;1.76;90.61;100177.47;5072767;28;20031;-74
2021/01/02 06:28:05;;;;;;;37.85;22.60;;;;;;;1.75;90.87;100175.72;5073112;28;20032;-74
2021/01/02 06:30:30;;;;;;;39.30;23.58;;;;;;;1.73;90.69;100177.44;5072693;28;20028;-74
2021/01/02 06:32:55;;;;;;;34.97;20.58;;;;;;;1.73;90.36;100173.16;5073906;28;20028;-74
2021/01/02 06:35:22;;;;;;;38.10;22.35;;;;;;;1.75;90.76;100180.84;5072661;28;20078;-74
2021/01/02 06:37:47;;;;;;;40.47;22.60;;;;;;;1.72;90.94;100181.66;5072553;28;20028;-74
2021/01/02 06:40:26;;;;;;;41.22;24.05;;;;;;;1.73;90.89;100182.53;5073766;28;20093;-73
2021/01/02 06:42:56;;;;;;;40.83;22.90;;;;;;;1.72;89.98;100184.22;5072415;28;20027;-74
2021/01/02 06:45:37;;;;;;;37.78;22.42;;;;;;;1.73;91.14;100187.66;5072265;28;20158;-74
2021/01/02 06:48:24;;;;;;;35.03;21.77;;;;;;;1.71;90.79;100189.31;5073255;28;20024;-74
2021/01/02 06:50:57;;;;;;;38.03;22.55;;;;;;;1.72;90.70;100194.44;5073611;28;20055;-73
2021/01/02 06:53:35;;;;;;;37.40;22.40;;;;;;;1.73;91.18;100198.72;5072295;28;20024;-74
2021/01/02 06:56:05;;;;;;;41.28;23.30;;;;;;;1.71;90.54;100200.41;5072235;28;20024;-74
2021/01/02 06:58:35;;;;;;;37.08;23.15;;;;;;;1.70;90.44;100206.38;5089346;28;20017;-73
2021/01/02 07:01:05;;;;;;;38.95;22.13;;;;;;;1.68;90.72;100207.19;5073428;28;20071;-73
2021/01/02 07:03:39;;;;;;;37.90;22.48;;;;;;;1.70;90.54;100210.63;5071945;28;20484;-74
2021/01/02 07:06:23;;;;;;;34.58;21.48;;;;;;;1.70;90.56;100214.03;5073228;28;20024;-74
2021/01/02 07:08:58;;;;;;;34.07;21.10;;;;;;;1.71;90.45;100212.34;5088930;28;20060;-74
2021/01/02 07:11:34;;;;;;;41.08;22.25;;;;;;;1.70;90.43;100214.03;5072125;28;20266;-74
2021/01/02 07:14:08;;;;;;;37.65;21.63;;;;;;;1.70;90.67;100219.16;5073217;28;20473;-74
2021/01/02 07:16:49;;;;;;;37.00;22.67;;;;;;;1.69;90.68;100221.66;5073415;28;20481;-74
2021/01/02 07:19:23;;;;;;;38.63;23.25;;;;;;;1.65;90.57;100223.34;5055757;28;20064;-74
2021/01/02 07:22:01;;;;;;;48.70;24.85;;;;;;;1.64;90.75;100228.44;5073166;28;20020;-73
2021/01/02 07:24:36;;;;;;;41.90;24.35;;;;;;;1.63;90.76;100224.16;5088547;28;20036;-73
2021/01/02 07:27:06;;;;;;;39.55;23.13;;;;;;;1.65;91.56;100232.72;5088653;28;20024;-73
2021/01/02 07:29:36;;;;;;;41.22;23.85;;;;;;;1.66;90.75;100236.97;5055038;28;20361;-72
2021/01/02 07:32:07;;;;;;;48.45;25.02;;;;;;;1.65;91.09;100236.13;5072154;28;20111;-72
2021/01/02 07:34:32;;;;;;;46.47;25.77;;;;;;;1.61;91.08;100237.78;5071808;28;20194;-72
2021/01/02 07:37:02;;;;;;;43.97;24.40;;;;;;;1.60;91.58;100245.41;5072080;28;20432;-73
2021/01/02 07:39:27;;;;;;;42.83;24.70;;;;;;;1.65;91.52;100241.22;5072339;28;20035;-72
2021/01/02 07:41:54;;;;;;;46.05;24.35;;;;;;;1.65;91.54;100251.44;5072836;28;20127;-73
2021/01/02 07:44:20;;;;;;;45.33;24.85;;;;;;;1.67;91.68;100254.91;5071877;28;20104;-72
2021/01/02 07:46:45;;;;;;;47.50;24.20;;;;;;;1.65;91.16;100256.56;5071565;28;20118;-73
2021/01/02 07:49:11;;;;;;;41.33;24.02;;;;;;;1.67;91.13;100264.28;5071637;28;20032;-72
2021/01/02 07:51:39;;;;;;;42.55;23.20;;;;;;;1.58;91.27;100270.97;5071891;28;20025;-73
2021/01/02 07:54:05;;;;;;;44.92;24.60;;;;;;;1.66;91.24;100272.75;5072766;28;20104;-72
2021/01/02 07:56:34;;;;;;;41.20;23.10;;;;;;;1.66;90.96;100278.72;5073084;28;20031;-73
2021/01/02 07:59:21;;;;;;;46.42;24.42;;;;;;;1.65;91.50;100276.16;5076143;28;20391;-73
2021/01/02 08:01:51;;;;;;;42.60;23.70;;;;;;;1.67;91.30;100277.91;5092312;28;20467;-72
2021/01/02 08:04:18;;;;;;;40.88;23.02;;;;;;;1.71;90.86;100286.47;5075269;28;20042;-73
2021/01/02 08:06:45;;;;;;;41.20;22.27;;;;;;;1.73;90.82;100279.69;5075450;28;20029;-72
2021/01/02 08:09:10;;;;;;;42.67;22.77;;;;;;;1.75;91.18;100288.22;5075384;28;20031;-72
2021/01/02 08:11:35;;;;;;;45.65;24.23;;;;;;;1.64;91.44;100294.91;5075519;28;20020;-73
2021/01/02 08:14:01;;;;;;;46.30;24.15;;;;;;;1.68;91.29;100287.28;5092400;28;20063;-72
2021/01/02 08:16:26;;;;;;;44.47;23.02;;;;;;;1.61;91.20;100296.56;5076579;28;20020;-72
2021/01/02 08:19:05;;;;;;;42.38;21.30;;;;;;;1.63;91.04;100299.13;5076425;28;20021;-73
2021/01/02 08:21:37;;;;;;;42.88;24.02;;;;;;;1.69;90.85;100300.91;5075286;28;20074;-73
2021/01/02 08:24:02;;;;;;;43.40;23.35;;;;;;;1.62;90.91;100294.88;5076352;28;20029;-73
2021/01/02 08:26:27;;;;;;;37.05;21.48;;;;;;;1.73;90.55;100303.56;5076458;28;20032;-73
2021/01/02 08:28:53;;;;;;;43.28;24.10;;;;;;;1.75;90.50;100304.41;5074920;28;20032;-73
2021/01/02 08:31:19;;;;;;;39.17;21.85;;;;;;;1.79;90.25;100313.00;5075048;28;20028;-73
2021/01/02 08:33:48;;;;;;;42.38;22.73;;;;;;;1.79;90.53;100308.75;5075044;28;20043;-73
2021/01/02 08:36:14;;;;;;;38.67;22.88;;;;;;;1.77;90.63;100317.22;5074943;28;20392;-73
2021/01/02 08:38:39;;;;;;;41.42;21.80;;;;;;;1.78;90.46;100313.81;5074823;28;20020;-73
2021/01/02 08:41:04;;;;;;;40.58;22.52;;;;;;;1.78;90.11;100319.78;5074916;28;20384;-74
2021/01/02 08:43:30;;;;;;;42.35;21.52;;;;;;;1.78;90.48;100319.78;5076000;28;20036;-73
2021/01/02 08:46:03;;;;;;;41.83;23.15;;;;;;;1.79;90.74;100325.78;5074595;28;20031;-74
2021/01/02 08:48:28;;;;;;;40.80;22.67;;;;;;;1.74;90.45;100328.28;5074805;28;20024;-73
2021/01/02 08:50:54;;;;;;;43.15;23.25;;;;;;;1.78;90.71;100324.91;5075086;28;20033;-74
2021/01/02 08:53:26;;;;;;;42.42;23.45;;;;;;;1.78;90.65;100327.47;5075567;28;20027;-73
2021/01/02 08:55:51;;;;;;;41.55;22.90;;;;;;;1.86;90.77;100335.25;5074625;28;20154;-73
2021/01/02 08:58:33;;;;;;;43.40;25.10;;;;;;;1.77;90.72;100333.44;5074607;28;20063;-73
2021/01/02 09:00:58;;;;;;;42.22;23.70;;;;;;;1.75;91.15;100337.66;5074553;28;20066;-73
2021/01/02 09:03:23;;;;;;;42.25;23.88;;;;;;;1.81;90.78;100342.00;5074248;28;20032;-73
2021/01/02 09:05:49;;;;;;;40.88;25.05;;;;;;;1.78;90.24;100341.94;5075838;28;20024;-73
2021/01/02 09:08:18;;;;;;;43.00;25.50;;;;;;;1.82;90.28;100344.59;5074405;28;20028;-74
2021/01/02 09:10:45;;;;;;;43.22;24.08;;;;;;;1.80;90.22;100340.28;5073731;28;20492;-73
2021/01/02 09:13:16;;;;;;;41.00;23.25;;;;;;;1.90;90.22;100349.78;5074252;28;20509;-73
2021/01/02 09:15:45;;;;;;;42.95;25.05;;;;;;;2.01;89.80;100345.69;5074621;28;20059;-73
2021/01/02 09:18:12;;;;;;;42.83;25.00;;;;;;;2.05;88.98;100350.00;5074224;28;20035;-73
2021/01/02 09:20:38;;;;;;;41.28;23.13;;;;;;;2.01;89.37;100349.94;5074127;28;20039;-73
2021/01/02 09:23:03;;;;;;;41.85;24.15;;;;;;;2.10;89.25;100350.06;5057436;28;20388;-73
2021/01/02 09:25:32;;;;;;;39.33;24.00;;;;;;;2.02;89.14;100355.06;5074770;28;20016;-74
2021/01/02 09:28:11;;;;;;;44.30;25.25;;;;;;;2.08;89.38;100352.59;5075254;28;20095;-73
2021/01/02 09:30:37;;;;;;;40.20;23.77;;;;;;;2.15;89.17;100357.78;5073985;28;20031;-73
2021/01/02 09:33:02;;;;;;;40.92;23.73;;;;;;;2.22;88.90;100364.72;5073807;28;20028;-74
2021/01/02 09:35:27;;;;;;;42.97;25.02;;;;;;;2.17;88.54;100363.78;5075092;28;20024;-74
2021/01/02 09:37:53;;;;;;;39.80;23.63;;;;;;;2.22;89.00;100377.50;5075078;28;20039;-74
2021/01/02 09:40:20;;;;;;;38.53;23.48;;;;;;;2.25;88.28;100373.28;5073817;28;20060;-73
2021/01/02 09:42:45;;;;;;;42.22;24.55;;;;;;;2.37;88.68;100372.59;5073628;28;20055;-73
2021/01/02 09:45:11;;;;;;;38.00;23.38;;;;;;;2.28;88.19;100375.03;5073739;28;20464;-74
2021/01/02 09:47:37;;;;;;;37.05;23.60;;;;;;;2.35;88.55;100375.97;5073653;28;20024;-74
2021/01/02 09:50:03;;;;;;;38.25;23.27;;;;;;;2.41;88.06;100373.47;5056985;28;20119;-74
2021/01/02 09:52:28;;;;;;;41.05;23.23;;;;;;;2.28;88.86;100378.44;5073708;28;20373;-73
2021/01/02 09:54:54;;;;;;;36.72;23.17;;;;;;;2.32;88.70;100384.44;5090169;28;20028;-73
2021/01/02 09:57:19;;;;;;;40.28;23.65;;;;;;;2.49;88.26;100382.09;5073436;28;20024;-73
2021/01/02 09:59:44;;;;;;;37.67;22.35;;;;;;;2.49;88.38;100380.41;5073362;28;20102;-73
2021/01/02 10:02:10;;;;;;;41.53;23.25;;;;;;;2.50;88.74;100382.13;5073292;28;20063;-73
2021/01/02 10:04:47;;;;;;;40.22;22.70;;;;;;;2.40;88.09;100387.97;5073048;28;20032;-73
2021/01/02 10:07:13;;;;;;;38.75;22.95;;;;;;;2.31;88.64;100392.97;5073069;28;20021;-73
2021/01/02 10:09:43;;;;;;;40.17;24.30;;;;;;;2.13;89.19;100392.75;5073490;28;20030;-73
2021/01/02 10:12:09;;;;;;;38.85;22.40;;;;;;;2.23;88.89;100395.44;5073190;28;20454;-74
2021/01/02 10:14:35;;;;;;;41.10;24.55;;;;;;;2.23;88.49;100395.44;5073081;28;20024;-73
2021/01/02 10:17:00;;;;;;;38.80;23.15;;;;;;;2.48;89.35;100400.84;5073028;28;20047;-73
2021/01/02 10:19:25;;;;;;;40.53;23.65;;;;;;;2.33;88.30;100395.53;5073047;28;20028;-73
2021/01/02 10:21:51;;;;;;;35.72;22.33;;;;;;;2.24;89.27;100396.28;5073039;28;20488;-73
2021/01/02 10:24:16;;;;;;;38.72;22.60;;;;;;;2.28;88.97;100395.50;5072826;28;20423;-74
2021/01/02 10:26:41;;;;;;;41.15;23.02;;;;;;;2.33;88.66;100392.97;5072782;28;20029;-75
2021/01/02 10:29:07;;;;;;;37.92;22.73;;;;;;;2.41;88.65;100397.34;5072822;28;20024;-75
2021/01/02 10:31:32;;;;;;;34.85;20.65;;;;;;;2.49;88.99;100403.44;5072953;28;20388;-74
2021/01/02 10:33:58;;;;;;;39.35;22.83;;;;;;;2.61;88.47;100401.84;5072608;28;20047;-74
2021/01/02 10:36:23;;;;;;;37.10;22.35;;;;;;;2.43;88.44;100403.38;5056312;28;20016;-74
2021/01/02 10:38:49;;;;;;;41.22;23.15;;;;;;;2.38;88.91;100399.03;5072970;28;20070;-74
2021/01/02 10:41:14;;;;;;;37.75;22.33;;;;;;;2.36;89.10;100398.13;5072895;28;20029;-74
2021/01/02 10:43:40;;;;;;;41.92;23.58;;;;;;;2.33;88.58;100404.06;5072366;28;20059;-74
2021/01/02 10:46:09;;;;;;;40.08;22.92;;;;;;;2.47;88.37;100400.00;5072355;28;20025;-74
2021/01/02 10:48:35;;;;;;;37.65;22.15;;;;;;;2.48;89.09;100401.69;5072365;28;20488;-74
2021/01/02 10:51:00;;;;;;;36.88;21.15;;;;;;;2.35;88.90;100404.97;5072272;28;20036;-75
2021/01/02 10:53:25;;;;;;;38.30;23.55;;;;;;;2.41;88.41;100407.59;5072562;28;20024;-74
2021/01/02 10:55:51;;;;;;;37.25;22.38;;;;;;;2.50;88.62;100402.59;5072365;28;20388;-75
2021/01/02 10:58:16;;;;;;;37.92;22.58;;;;;;;2.41;88.58;100406.75;5073783;28;20033;-75
2021/01/02 11:00:41;;;;;;;36.90;21.55;;;;;;;2.51;88.76;100406.84;5073581;28;20024;-75
2021/01/02 11:03:08;;;;;;;35.58;21.27;;;;;;;2.64;88.06;100401.88;5072031;28;20471;-75
2021/01/02 11:05:33;;;;;;;37.10;22.23;;;;;;;2.53;88.21;100405.19;5072351;28;20028;-75
2021/01/02 11:07:58;;;;;;;32.85;19.98;;;;;;;2.49;87.96;100403.44;5073525;28;20027;-75
2021/01/02 11:10:23;;;;;;;35.17;22.00;;;;;;;2.41;88.74;100407.59;5071951;28;20033;-74
2021/01/02 11:12:49;;;;;;;36.17;21.27;;;;;;;2.52;88.18;100406.03;5073057;28;20028;-74
2021/01/02 11:15:14;;;;;;;35.60;20.65;;;;;;;2.59;87.29;100395.88;5073443;28;20577;-75
2021/01/02 11:17:40;;;;;;;36.92;20.67;;;;;;;2.74;87.22;100401.13;5073058;28;20028;-75
2021/01/02 11:20:07;;;;;;;32.30;19.50;;;;;;;2.65;88.04;100401.03;5071901;28;20028;-74
2021/01/02 11:22:32;;;;;;;30.33;18.95;;;;;;;2.85;87.00;100399.56;5055685;28;20413;-75
2021/01/02 11:24:57;;;;;;;31.75;19.02;;;;;;;2.80;86.45;100397.78;5071754;28;20056;-74
2021/01/02 11:27:23;;;;;;;31.05;19.40;;;;;;;2.85;87.11;100399.56;5071497;28;20025;-74